Kezdőlap
METAR-TAF:

METAR-TAF

Repülőterek :

Tawau, Malajzia

földrajzi szélesség: 04-16N, földrajzi hosszúság: 117-53E, magasság: 18 m

Jelenlegi meteorológiai megfigyelések

A jelentés 1 órával és 13 perccel ezelõtt készült, 14:00 UTC
Különbözõ irányokból fújó szél 1 kt
Hőmérséklet 27°C
Páratartalom 89%
Légköri nyomás 1010 hPa
Látótávolság 10 km, vagy több
Kevés felhő 1700 lábon

METAR: WBKW 171400Z VRB01KT 9999 FEW017 27/25 Q1010

Idő: 23:13 (15:13 UTC)

Előrejelzés

A jelentés 4 órával és 13 perccel ezelõtt készült, 11:00 UTC
Az előrejelzés 17-én 12 óra UTC és 18-én 12 óra UTC között érvényes
Északnyugati szél 5 kt
Látótávolság 10 km, vagy több
Kevés felhő 1700 lábon

TAF: WBKW 171100Z 1712/1812 31005KT 9999 FEW017

Meteorológiai megfigyelések és előrejelzések több, mint 4000 repülőtéren (METAR és TAF jelentéseket).

A térképen piros és sárga pontok jelzik az elérhető meteorológiai állomásokat.

Mozgassa az egeret a pont fölött, hogy megjelenjen az állomás neve.

Azután kattintson az időjárási megfigyelések és előrejelzések megtekintéséhez.

A térkép megváltoztatása: kattintson a fekete keresztel jelölt zöld gombra ráközelítéshez, a vonallal jelölt zöld gombra távolításhoz, vagy a zöld nyilakra a szomszédos térképek eléréséhez.


METAR-TAF: